This is the latest recevied weather packets stored in our database for station/object RK6MF-10. If no packets are shown the sender has not sent any weather packets the latest 10 day(s).
| Time | Temp. | Humidity | Pressure | Rain* | Wind** | Luminosity | Snow |
|---|---|---|---|---|---|---|---|
| 1777789063 | 16.67° C | 41% | 1015.6 hPa | - | - | - | - |
| 1777788163 | 15.56° C | 45% | 1015.6 hPa | - | - | - | - |
| 1777787263 | 13.89° C | 47% | 1015.5 hPa | - | - | - | - |
| 1777786362 | 13.89° C | 51% | 1015.7 hPa | - | - | - | - |
| 1777785462 | 13.33° C | 54% | 1015.7 hPa | - | - | - | - |
| 1777784562 | 13.33° C | 53% | 1015.8 hPa | - | - | - | - |
| 1777783662 | 12.78° C | 56% | 1015.8 hPa | - | - | - | - |
| 1777782762 | 11.11° C | 62% | 1015.8 hPa | - | - | - | - |
| 1777781862 | 8.33° C | 72% | 1015.9 hPa | - | - | - | - |
| 1777780962 | 7.22° C | 77% | 1015.7 hPa | - | - | - | - |
| 1777780062 | 6.11° C | 83% | 1015.7 hPa | - | - | - | - |
| 1777779162 | 5.56° C | 91% | 1015.7 hPa | - | - | - | - |
| 1777778262 | 4.44° C | 96% | 1015.8 hPa | - | - | - | - |
| 1777777361 | 4.44° C | 97% | 1015.8 hPa | - | - | - | - |
| 1777776461 | 3.33° C | 100% | 1015.7 hPa | - | - | - | - |
| 1777775561 | 3.33° C | 100% | 1015.5 hPa | - | - | - | - |
| 1777774661 | 3.33° C | 97% | 1015.6 hPa | - | - | - | - |
| 1777772864 | 3.33° C | 95% | 1015.7 hPa | - | - | - | - |
| 1777771964 | 3.33° C | 95% | 1015.6 hPa | - | - | - | - |
| 1777771063 | 3.33° C | 98% | 1015.7 hPa | - | - | - | - |
| 1777770163 | 3.33° C | 100% | 1015.7 hPa | - | - | - | - |
| 1777769263 | 3.33° C | 93% | 1015.6 hPa | - | - | - | - |
| 1777768363 | 3.89° C | 85% | 1015.6 hPa | - | - | - | - |
| 1777767463 | 4.44° C | 82% | 1015.6 hPa | - | - | - | - |
| 1777766563 | 3.89° C | 84% | 1015.6 hPa | - | - | - | - |
* Rain since midnight (hover to see other rain measurements)
** Current wind speed in m/s (hover to see current wind gust speed)